Terminal Aerodrome Forecast
Issued by NWS Blacksburg, VA

Current Version | Previous Version | Graphics & Text | Print | Product List | Glossary On
Versions: 1 2 3 4 5 6 7 8 9 10 11 12 13 14 15 16 17 18 19 20 21 22 23 24 25 26 27 28 29 30
000
FTUS41 KRNK 021121
TAFBLF
TAF
KBLF 021121Z 0212/0312 25003KT P6SM SCT120
     FM021230 33002KT P6SM SCT018 BKN100
     FM021800 31004KT P6SM VCSH BKN040
     FM030000 29003KT P6SM SCT100=

USA.gov is the U.S. government's official web portal to all federal, state and local government web resources and services.